sensor_id;sensor_type;location;lat;lon;timestamp;P1;durP1;ratioP1;P2;durP2;ratioP2
31095;SDS011;17749;51.962;8.560;2022-11-11T06:03:08;7.65;;;2.63;;
31095;SDS011;17749;51.962;8.560;2022-11-11T06:05:53;6.40;;;3.17;;
31095;SDS011;17749;51.962;8.560;2022-11-11T06:08:40;6.95;;;2.95;;
31095;SDS011;17749;51.962;8.560;2022-11-11T06:11:27;5.88;;;2.85;;
31095;SDS011;17749;51.962;8.560;2022-11-11T06:14:16;4.75;;;2.53;;
31095;SDS011;17749;51.962;8.560;2022-11-11T06:17:02;6.85;;;3.55;;
31095;SDS011;17749;51.962;8.560;2022-11-11T06:19:48;4.07;;;2.80;;
31095;SDS011;17749;51.962;8.560;2022-11-11T06:22:34;4.07;;;2.78;;
31095;SDS011;17749;51.962;8.560;2022-11-11T06:25:38;10.60;;;3.85;;
31095;SDS011;17749;51.962;8.560;2022-11-11T06:31:35;10.50;;;4.25;;
31095;SDS011;17749;51.962;8.560;2022-11-11T06:34:21;4.82;;;3.47;;
31095;SDS011;17749;51.962;8.560;2022-11-11T06:37:06;6.70;;;3.33;;
31095;SDS011;17749;51.962;8.560;2022-11-11T06:39:52;6.32;;;3.78;;
31095;SDS011;17749;51.962;8.560;2022-11-11T06:42:37;9.88;;;4.38;;
31095;SDS011;17749;51.962;8.560;2022-11-11T06:45:23;6.72;;;3.88;;
31095;SDS011;17749;51.962;8.560;2022-11-11T06:48:10;8.60;;;3.92;;
31095;SDS011;17749;51.962;8.560;2022-11-11T06:51:00;8.98;;;3.65;;
31095;SDS011;17749;51.962;8.560;2022-11-11T06:53:47;7.60;;;4.22;;
31095;SDS011;17749;51.962;8.560;2022-11-11T06:56:33;8.10;;;4.30;;
31095;SDS011;17749;51.962;8.560;2022-11-11T06:59:19;7.22;;;4.20;;
31095;SDS011;17749;51.962;8.560;2022-11-11T07:02:04;7.70;;;4.40;;
31095;SDS011;17749;51.962;8.560;2022-11-11T07:04:50;9.38;;;3.85;;
31095;SDS011;17749;51.962;8.560;2022-11-11T07:07:36;9.00;;;4.28;;
31095;SDS011;17749;51.962;8.560;2022-11-11T07:10:21;8.75;;;4.40;;
31095;SDS011;17749;51.962;8.560;2022-11-11T07:13:07;6.38;;;4.10;;
31095;SDS011;17749;51.962;8.560;2022-11-11T07:15:53;7.80;;;4.30;;
31095;SDS011;17749;51.962;8.560;2022-11-11T07:18:39;12.57;;;4.75;;
31095;SDS011;17749;51.962;8.560;2022-11-11T07:21:24;14.43;;;4.65;;
31095;SDS011;17749;51.962;8.560;2022-11-11T07:24:09;7.38;;;3.67;;
31095;SDS011;17749;51.962;8.560;2022-11-11T07:26:55;6.88;;;3.95;;
31095;SDS011;17749;51.962;8.560;2022-11-11T07:29:40;11.18;;;3.95;;
31095;SDS011;17749;51.962;8.560;2022-11-11T07:32:26;7.28;;;3.60;;
31095;SDS011;17749;51.962;8.560;2022-11-11T07:35:12;6.05;;;3.42;;
31095;SDS011;17749;51.962;8.560;2022-11-11T07:37:58;4.82;;;3.35;;
31095;SDS011;17749;51.962;8.560;2022-11-11T07:40:44;9.77;;;4.13;;
31095;SDS011;17749;51.962;8.560;2022-11-11T07:43:29;7.80;;;3.80;;
31095;SDS011;17749;51.962;8.560;2022-11-11T07:46:15;5.93;;;3.08;;
31095;SDS011;17749;51.962;8.560;2022-11-11T07:49:00;6.63;;;4.00;;
31095;SDS011;17749;51.962;8.560;2022-11-11T07:51:46;7.43;;;3.17;;
31095;SDS011;17749;51.962;8.560;2022-11-11T07:54:31;7.57;;;3.55;;
31095;SDS011;17749;51.962;8.560;2022-11-11T07:57:17;8.63;;;3.72;;
31095;SDS011;17749;51.962;8.560;2022-11-11T08:00:03;8.02;;;4.05;;
31095;SDS011;17749;51.962;8.560;2022-11-11T08:02:49;8.10;;;5.25;;
31095;SDS011;17749;51.962;8.560;2022-11-11T08:05:37;8.10;;;4.22;;
31095;SDS011;17749;51.962;8.560;2022-11-11T08:08:22;10.60;;;4.35;;
31095;SDS011;17749;51.962;8.560;2022-11-11T08:11:11;7.40;;;3.87;;
31095;SDS011;17749;51.962;8.560;2022-11-11T08:13:58;8.18;;;4.07;;
31095;SDS011;17749;51.962;8.560;2022-11-11T08:16:43;6.13;;;3.30;;
31095;SDS011;17749;51.962;8.560;2022-11-11T08:19:29;8.13;;;3.80;;
31095;SDS011;17749;51.962;8.560;2022-11-11T08:22:14;4.95;;;3.20;;
31095;SDS011;17749;51.962;8.560;2022-11-11T08:25:00;14.57;;;3.33;;
31095;SDS011;17749;51.962;8.560;2022-11-11T08:27:55;7.55;;;3.55;;
31095;SDS011;17749;51.962;8.560;2022-11-11T08:30:49;9.25;;;3.00;;
31095;SDS011;17749;51.962;8.560;2022-11-11T08:33:35;5.20;;;2.97;;
31095;SDS011;17749;51.962;8.560;2022-11-11T08:36:20;10.35;;;3.28;;
31095;SDS011;17749;51.962;8.560;2022-11-11T08:39:07;5.75;;;3.00;;
31095;SDS011;17749;51.962;8.560;2022-11-11T08:41:53;6.03;;;3.30;;
31095;SDS011;17749;51.962;8.560;2022-11-11T08:44:39;5.93;;;3.53;;
31095;SDS011;17749;51.962;8.560;2022-11-11T08:47:24;8.90;;;3.38;;
31095;SDS011;17749;51.962;8.560;2022-11-11T08:50:10;8.57;;;3.90;;
31095;SDS011;17749;51.962;8.560;2022-11-11T08:52:56;8.60;;;3.20;;
31095;SDS011;17749;51.962;8.560;2022-11-11T08:55:41;5.20;;;3.58;;
31095;SDS011;17749;51.962;8.560;2022-11-11T08:58:27;8.02;;;3.63;;
31095;SDS011;17749;51.962;8.560;2022-11-11T09:01:12;8.60;;;3.80;;
31095;SDS011;17749;51.962;8.560;2022-11-11T09:03:58;10.10;;;3.20;;
31095;SDS011;17749;51.962;8.560;2022-11-11T09:07:05;9.52;;;3.35;;
31095;SDS011;17749;51.962;8.560;2022-11-11T09:09:52;9.65;;;3.50;;
31095;SDS011;17749;51.962;8.560;2022-11-11T09:12:37;36.42;;;16.08;;
31095;SDS011;17749;51.962;8.560;2022-11-11T09:15:24;16.23;;;8.60;;
31095;SDS011;17749;51.962;8.560;2022-11-11T09:18:10;6.55;;;4.30;;
31095;SDS011;17749;51.962;8.560;2022-11-11T09:20:57;5.75;;;3.28;;
31095;SDS011;17749;51.962;8.560;2022-11-11T09:23:44;7.93;;;3.42;;
31095;SDS011;17749;51.962;8.560;2022-11-11T09:26:29;9.02;;;3.10;;
31095;SDS011;17749;51.962;8.560;2022-11-11T09:29:14;7.10;;;3.20;;
31095;SDS011;17749;51.962;8.560;2022-11-11T09:32:00;7.25;;;2.70;;
31095;SDS011;17749;51.962;8.560;2022-11-11T09:34:46;6.13;;;2.80;;
31095;SDS011;17749;51.962;8.560;2022-11-11T09:37:31;12.68;;;2.90;;
31095;SDS011;17749;51.962;8.560;2022-11-11T09:40:17;6.82;;;2.70;;
31095;SDS011;17749;51.962;8.560;2022-11-11T09:49:47;4.22;;;2.83;;
31095;SDS011;17749;51.962;8.560;2022-11-11T09:52:28;7.93;;;3.13;;
31095;SDS011;17749;51.962;8.560;2022-11-11T09:55:26;8.40;;;3.55;;
31095;SDS011;17749;51.962;8.560;2022-11-11T09:58:22;5.28;;;2.78;;
31095;SDS011;17749;51.962;8.560;2022-11-11T10:01:18;6.53;;;2.65;;
31095;SDS011;17749;51.962;8.560;2022-11-11T10:07:12;6.15;;;3.28;;
31095;SDS011;17749;51.962;8.560;2022-11-11T10:12:59;7.55;;;3.67;;
31095;SDS011;17749;51.962;8.560;2022-11-11T10:18:54;9.50;;;2.95;;
31095;SDS011;17749;51.962;8.560;2022-11-11T10:21:50;7.72;;;2.72;;
31095;SDS011;17749;51.962;8.560;2022-11-11T10:27:58;6.63;;;2.50;;
31095;SDS011;17749;51.962;8.560;2022-11-11T10:30:47;6.72;;;2.70;;
31095;SDS011;17749;51.962;8.560;2022-11-11T10:33:45;8.13;;;3.45;;
31095;SDS011;17749;51.962;8.560;2022-11-11T10:36:37;4.57;;;2.72;;
31095;SDS011;17749;51.962;8.560;2022-11-11T10:42:56;8.73;;;2.60;;
31095;SDS011;17749;51.962;8.560;2022-11-11T10:52:02;5.38;;;2.47;;
31095;SDS011;17749;51.962;8.560;2022-11-11T11:00:56;7.43;;;2.97;;
31095;SDS011;17749;51.962;8.560;2022-11-11T11:03:46;5.00;;;2.60;;
31095;SDS011;17749;51.962;8.560;2022-11-11T11:06:36;4.93;;;2.45;;
31095;SDS011;17749;51.962;8.560;2022-11-11T11:09:26;5.57;;;2.35;;
31095;SDS011;17749;51.962;8.560;2022-11-11T11:12:25;4.22;;;2.28;;
31095;SDS011;17749;51.962;8.560;2022-11-11T11:15:18;6.05;;;2.65;;
31095;SDS011;17749;51.962;8.560;2022-11-11T11:18:07;4.88;;;2.75;;
31095;SDS011;17749;51.962;8.560;2022-11-11T11:21:03;6.63;;;2.20;;
31095;SDS011;17749;51.962;8.560;2022-11-11T11:23:51;5.28;;;2.53;;
31095;SDS011;17749;51.962;8.560;2022-11-11T11:26:46;8.52;;;2.20;;
31095;SDS011;17749;51.962;8.560;2022-11-11T11:29:35;5.50;;;2.22;;
31095;SDS011;17749;51.962;8.560;2022-11-11T11:32:27;4.22;;;1.75;;
31095;SDS011;17749;51.962;8.560;2022-11-11T11:38:38;3.67;;;1.73;;
31095;SDS011;17749;51.962;8.560;2022-11-11T11:41:44;6.95;;;2.03;;
31095;SDS011;17749;51.962;8.560;2022-11-11T11:44:37;4.13;;;1.77;;
31095;SDS011;17749;51.962;8.560;2022-11-11T11:50:29;2.90;;;1.63;;
31095;SDS011;17749;51.962;8.560;2022-11-11T11:56:47;3.28;;;1.60;;
31095;SDS011;17749;51.962;8.560;2022-11-11T11:59:38;3.65;;;1.70;;
31095;SDS011;17749;51.962;8.560;2022-11-11T12:02:56;4.45;;;1.58;;
31095;SDS011;17749;51.962;8.560;2022-11-11T12:12:06;3.38;;;1.30;;
31095;SDS011;17749;51.962;8.560;2022-11-11T12:15:08;5.57;;;1.40;;
31095;SDS011;17749;51.962;8.560;2022-11-11T12:21:28;3.03;;;1.45;;
31095;SDS011;17749;51.962;8.560;2022-11-11T12:24:41;3.50;;;1.13;;
31095;SDS011;17749;51.962;8.560;2022-11-11T12:31:16;3.42;;;1.48;;
31095;SDS011;17749;51.962;8.560;2022-11-11T12:34:11;3.30;;;1.23;;
31095;SDS011;17749;51.962;8.560;2022-11-11T12:37:23;4.65;;;1.38;;
31095;SDS011;17749;51.962;8.560;2022-11-11T12:40:23;5.47;;;1.35;;
31095;SDS011;17749;51.962;8.560;2022-11-11T12:43:21;4.65;;;2.05;;
31095;SDS011;17749;51.962;8.560;2022-11-11T12:52:05;4.20;;;1.15;;
31095;SDS011;17749;51.962;8.560;2022-11-11T12:55:23;2.40;;;1.17;;
31095;SDS011;17749;51.962;8.560;2022-11-11T13:04:47;2.17;;;1.10;;
31095;SDS011;17749;51.962;8.560;2022-11-11T13:17:15;3.45;;;0.90;;
31095;SDS011;17749;51.962;8.560;2022-11-11T13:22:48;2.20;;;0.90;;
31095;SDS011;17749;51.962;8.560;2022-11-11T13:25:34;2.15;;;0.98;;
31095;SDS011;17749;51.962;8.560;2022-11-11T13:28:28;2.95;;;1.00;;
31095;SDS011;17749;51.962;8.560;2022-11-11T13:34:13;3.83;;;1.25;;
31095;SDS011;17749;51.962;8.560;2022-11-11T13:37:00;3.10;;;0.90;;
31095;SDS011;17749;51.962;8.560;2022-11-11T13:42:46;2.58;;;0.90;;
31095;SDS011;17749;51.962;8.560;2022-11-11T13:45:37;3.00;;;0.85;;
31095;SDS011;17749;51.962;8.560;2022-11-11T14:00:03;2.88;;;1.20;;
31095;SDS011;17749;51.962;8.560;2022-11-11T14:08:59;4.95;;;1.15;;
31095;SDS011;17749;51.962;8.560;2022-11-11T14:11:44;4.88;;;1.38;;
31095;SDS011;17749;51.962;8.560;2022-11-11T14:17:16;2.25;;;1.10;;
31095;SDS011;17749;51.962;8.560;2022-11-11T14:23:26;7.97;;;1.33;;
31095;SDS011;17749;51.962;8.560;2022-11-11T14:26:18;3.85;;;1.30;;
31095;SDS011;17749;51.962;8.560;2022-11-11T14:29:15;2.42;;;1.00;;
31095;SDS011;17749;51.962;8.560;2022-11-11T14:35:37;2.40;;;0.95;;
31095;SDS011;17749;51.962;8.560;2022-11-11T14:41:51;8.52;;;1.40;;
31095;SDS011;17749;51.962;8.560;2022-11-11T14:44:39;5.07;;;1.45;;
31095;SDS011;17749;51.962;8.560;2022-11-11T14:47:32;4.68;;;1.65;;
31095;SDS011;17749;51.962;8.560;2022-11-11T14:53:19;2.50;;;1.35;;
31095;SDS011;17749;51.962;8.560;2022-11-11T14:56:15;3.78;;;1.35;;
31095;SDS011;17749;51.962;8.560;2022-11-11T14:59:06;3.33;;;1.48;;
31095;SDS011;17749;51.962;8.560;2022-11-11T15:01:55;4.35;;;1.50;;
31095;SDS011;17749;51.962;8.560;2022-11-11T15:04:43;3.67;;;1.38;;
31095;SDS011;17749;51.962;8.560;2022-11-11T15:10:19;4.55;;;1.25;;
31095;SDS011;17749;51.962;8.560;2022-11-11T15:19:13;5.22;;;1.23;;
31095;SDS011;17749;51.962;8.560;2022-11-11T15:25:44;2.65;;;1.30;;
31095;SDS011;17749;51.962;8.560;2022-11-11T15:31:56;2.40;;;1.10;;
31095;SDS011;17749;51.962;8.560;2022-11-11T15:37:43;1.67;;;0.90;;
31095;SDS011;17749;51.962;8.560;2022-11-11T15:40:47;5.25;;;1.35;;
31095;SDS011;17749;51.962;8.560;2022-11-11T15:43:34;3.83;;;1.63;;
31095;SDS011;17749;51.962;8.560;2022-11-11T15:46:27;2.10;;;1.00;;
31095;SDS011;17749;51.962;8.560;2022-11-11T15:49:35;3.08;;;1.30;;
31095;SDS011;17749;51.962;8.560;2022-11-11T15:55:24;3.50;;;1.50;;
31095;SDS011;17749;51.962;8.560;2022-11-11T16:00:59;5.80;;;3.05;;
31095;SDS011;17749;51.962;8.560;2022-11-11T16:03:51;7.15;;;3.97;;
31095;SDS011;17749;51.962;8.560;2022-11-11T16:06:37;10.15;;;5.78;;
31095;SDS011;17749;51.962;8.560;2022-11-11T16:09:23;14.38;;;6.82;;
31095;SDS011;17749;51.962;8.560;2022-11-11T16:12:12;16.00;;;9.00;;
31095;SDS011;17749;51.962;8.560;2022-11-11T16:15:02;17.58;;;8.90;;
31095;SDS011;17749;51.962;8.560;2022-11-11T16:17:53;12.20;;;7.63;;
31095;SDS011;17749;51.962;8.560;2022-11-11T16:23:53;12.55;;;6.25;;
31095;SDS011;17749;51.962;8.560;2022-11-11T16:26:41;10.20;;;5.82;;
31095;SDS011;17749;51.962;8.560;2022-11-11T16:29:28;9.25;;;4.72;;
31095;SDS011;17749;51.962;8.560;2022-11-11T16:32:30;8.13;;;4.55;;
31095;SDS011;17749;51.962;8.560;2022-11-11T16:35:25;10.40;;;4.65;;
31095;SDS011;17749;51.962;8.560;2022-11-11T16:38:29;11.93;;;7.00;;
31095;SDS011;17749;51.962;8.560;2022-11-11T16:41:29;20.60;;;11.50;;
31095;SDS011;17749;51.962;8.560;2022-11-11T16:50:17;41.00;;;25.70;;
31095;SDS011;17749;51.962;8.560;2022-11-11T16:53:22;35.15;;;21.23;;
31095;SDS011;17749;51.962;8.560;2022-11-11T16:56:18;49.38;;;33.92;;
31095;SDS011;17749;51.962;8.560;2022-11-11T16:59:14;59.50;;;35.95;;
31095;SDS011;17749;51.962;8.560;2022-11-11T17:02:16;43.72;;;24.98;;
31095;SDS011;17749;51.962;8.560;2022-11-11T17:05:05;30.27;;;17.27;;
31095;SDS011;17749;51.962;8.560;2022-11-11T17:07:51;25.92;;;14.82;;
31095;SDS011;17749;51.962;8.560;2022-11-11T17:10:37;19.50;;;13.57;;
31095;SDS011;17749;51.962;8.560;2022-11-11T17:13:27;21.10;;;15.07;;
31095;SDS011;17749;51.962;8.560;2022-11-11T17:16:14;25.55;;;18.10;;
31095;SDS011;17749;51.962;8.560;2022-11-11T17:18:59;19.67;;;14.05;;
31095;SDS011;17749;51.962;8.560;2022-11-11T17:21:47;14.63;;;10.95;;
31095;SDS011;17749;51.962;8.560;2022-11-11T17:24:33;14.18;;;10.32;;
31095;SDS011;17749;51.962;8.560;2022-11-11T17:27:18;14.18;;;8.07;;
31095;SDS011;17749;51.962;8.560;2022-11-11T17:30:04;11.85;;;8.25;;
31095;SDS011;17749;51.962;8.560;2022-11-11T17:32:50;9.10;;;7.70;;
31095;SDS011;17749;51.962;8.560;2022-11-11T17:35:35;8.75;;;6.55;;
31095;SDS011;17749;51.962;8.560;2022-11-11T17:38:21;9.50;;;6.63;;
31095;SDS011;17749;51.962;8.560;2022-11-11T17:41:06;13.65;;;7.85;;
31095;SDS011;17749;51.962;8.560;2022-11-11T17:43:52;10.90;;;7.28;;
31095;SDS011;17749;51.962;8.560;2022-11-11T17:46:37;9.25;;;6.55;;
31095;SDS011;17749;51.962;8.560;2022-11-11T17:49:23;19.00;;;11.57;;
31095;SDS011;17749;51.962;8.560;2022-11-11T17:52:28;15.98;;;8.52;;
31095;SDS011;17749;51.962;8.560;2022-11-11T17:55:14;8.90;;;5.28;;
31095;SDS011;17749;51.962;8.560;2022-11-11T17:57:59;7.10;;;4.20;;
31095;SDS011;17749;51.962;8.560;2022-11-11T18:00:45;6.93;;;4.10;;
31095;SDS011;17749;51.962;8.560;2022-11-11T18:03:55;12.25;;;7.78;;
31095;SDS011;17749;51.962;8.560;2022-11-11T18:06:42;10.23;;;5.18;;
31095;SDS011;17749;51.962;8.560;2022-11-11T18:09:28;9.43;;;4.90;;
31095;SDS011;17749;51.962;8.560;2022-11-11T18:12:14;15.50;;;8.30;;
31095;SDS011;17749;51.962;8.560;2022-11-11T18:15:00;22.55;;;12.98;;
31095;SDS011;17749;51.962;8.560;2022-11-11T18:17:47;30.58;;;16.77;;
31095;SDS011;17749;51.962;8.560;2022-11-11T18:20:32;35.97;;;22.80;;
31095;SDS011;17749;51.962;8.560;2022-11-11T18:23:18;40.72;;;23.63;;
31095;SDS011;17749;51.962;8.560;2022-11-11T18:26:05;19.77;;;12.50;;
31095;SDS011;17749;51.962;8.560;2022-11-11T18:28:52;16.27;;;8.48;;
31095;SDS011;17749;51.962;8.560;2022-11-11T18:31:37;9.23;;;5.82;;
31095;SDS011;17749;51.962;8.560;2022-11-11T18:34:23;11.73;;;6.55;;
31095;SDS011;17749;51.962;8.560;2022-11-11T18:37:08;14.82;;;6.57;;
31095;SDS011;17749;51.962;8.560;2022-11-11T18:39:55;11.10;;;6.55;;
31095;SDS011;17749;51.962;8.560;2022-11-11T18:42:41;18.02;;;11.13;;
31095;SDS011;17749;51.962;8.560;2022-11-11T18:45:26;20.95;;;12.77;;
31095;SDS011;17749;51.962;8.560;2022-11-11T18:48:14;18.38;;;12.48;;
31095;SDS011;17749;51.962;8.560;2022-11-11T18:50:59;21.30;;;16.30;;
31095;SDS011;17749;51.962;8.560;2022-11-11T18:53:45;29.52;;;21.17;;
31095;SDS011;17749;51.962;8.560;2022-11-11T18:56:33;25.83;;;19.30;;
31095;SDS011;17749;51.962;8.560;2022-11-11T18:59:21;18.70;;;14.15;;
31095;SDS011;17749;51.962;8.560;2022-11-11T19:02:07;13.68;;;11.18;;
31095;SDS011;17749;51.962;8.560;2022-11-11T19:05:15;13.68;;;8.90;;
31095;SDS011;17749;51.962;8.560;2022-11-11T19:08:04;12.27;;;7.30;;
31095;SDS011;17749;51.962;8.560;2022-11-11T19:10:50;13.80;;;7.07;;
31095;SDS011;17749;51.962;8.560;2022-11-11T19:13:36;10.02;;;6.32;;
31095;SDS011;17749;51.962;8.560;2022-11-11T19:16:22;15.52;;;6.55;;
31095;SDS011;17749;51.962;8.560;2022-11-11T19:19:08;13.93;;;6.28;;
31095;SDS011;17749;51.962;8.560;2022-11-11T19:21:54;8.18;;;4.85;;
31095;SDS011;17749;51.962;8.560;2022-11-11T19:24:40;8.57;;;5.10;;
31095;SDS011;17749;51.962;8.560;2022-11-11T19:27:26;9.00;;;6.07;;
31095;SDS011;17749;51.962;8.560;2022-11-11T19:30:11;9.02;;;6.75;;
31095;SDS011;17749;51.962;8.560;2022-11-11T19:32:57;9.70;;;6.20;;
31095;SDS011;17749;51.962;8.560;2022-11-11T19:35:43;10.05;;;5.93;;
31095;SDS011;17749;51.962;8.560;2022-11-11T19:38:40;6.75;;;4.80;;
31095;SDS011;17749;51.962;8.560;2022-11-11T19:41:27;6.43;;;4.80;;
31095;SDS011;17749;51.962;8.560;2022-11-11T19:44:14;10.02;;;5.65;;
31095;SDS011;17749;51.962;8.560;2022-11-11T19:47:00;7.78;;;5.70;;
31095;SDS011;17749;51.962;8.560;2022-11-11T19:49:46;7.25;;;5.10;;
31095;SDS011;17749;51.962;8.560;2022-11-11T19:52:35;8.35;;;4.65;;
31095;SDS011;17749;51.962;8.560;2022-11-11T19:55:21;8.60;;;5.03;;
31095;SDS011;17749;51.962;8.560;2022-11-11T19:58:06;8.07;;;5.30;;
31095;SDS011;17749;51.962;8.560;2022-11-11T20:00:52;10.35;;;5.03;;
31095;SDS011;17749;51.962;8.560;2022-11-11T20:03:39;8.23;;;5.60;;
31095;SDS011;17749;51.962;8.560;2022-11-11T20:09:15;10.52;;;6.63;;
31095;SDS011;17749;51.962;8.560;2022-11-11T20:12:01;11.95;;;7.60;;
31095;SDS011;17749;51.962;8.560;2022-11-11T20:14:46;8.95;;;6.72;;
31095;SDS011;17749;51.962;8.560;2022-11-11T20:17:32;12.35;;;6.68;;
31095;SDS011;17749;51.962;8.560;2022-11-11T20:20:19;8.00;;;4.40;;
31095;SDS011;17749;51.962;8.560;2022-11-11T20:23:05;8.88;;;4.60;;
31095;SDS011;17749;51.962;8.560;2022-11-11T20:25:52;6.97;;;4.75;;
31095;SDS011;17749;51.962;8.560;2022-11-11T20:28:39;10.38;;;5.22;;
31095;SDS011;17749;51.962;8.560;2022-11-11T20:31:28;6.93;;;4.43;;
31095;SDS011;17749;51.962;8.560;2022-11-11T20:34:14;10.95;;;6.60;;
31095;SDS011;17749;51.962;8.560;2022-11-11T20:37:00;11.88;;;6.88;;
31095;SDS011;17749;51.962;8.560;2022-11-11T20:39:45;19.38;;;7.93;;
31095;SDS011;17749;51.962;8.560;2022-11-11T20:42:31;18.45;;;9.30;;
31095;SDS011;17749;51.962;8.560;2022-11-11T20:45:16;20.42;;;9.02;;
31095;SDS011;17749;51.962;8.560;2022-11-11T20:48:06;26.13;;;13.50;;
31095;SDS011;17749;51.962;8.560;2022-11-11T20:50:59;41.65;;;20.95;;
31095;SDS011;17749;51.962;8.560;2022-11-11T20:53:46;39.13;;;19.45;;
31095;SDS011;17749;51.962;8.560;2022-11-11T20:56:33;30.63;;;16.30;;
31095;SDS011;17749;51.962;8.560;2022-11-11T20:59:19;31.88;;;15.05;;
31095;SDS011;17749;51.962;8.560;2022-11-11T21:02:07;32.80;;;14.88;;
31095;SDS011;17749;51.962;8.560;2022-11-11T21:04:54;28.90;;;13.33;;
31095;SDS011;17749;51.962;8.560;2022-11-11T21:07:40;22.38;;;11.63;;
31095;SDS011;17749;51.962;8.560;2022-11-11T21:10:25;22.13;;;10.63;;
31095;SDS011;17749;51.962;8.560;2022-11-11T21:13:12;15.98;;;9.20;;
31095;SDS011;17749;51.962;8.560;2022-11-11T21:16:32;15.05;;;8.48;;
31095;SDS011;17749;51.962;8.560;2022-11-11T21:19:11;13.02;;;8.18;;
31095;SDS011;17749;51.962;8.560;2022-11-11T21:21:57;13.80;;;7.60;;
31095;SDS011;17749;51.962;8.560;2022-11-11T21:24:43;10.57;;;7.28;;
31095;SDS011;17749;51.962;8.560;2022-11-11T21:27:29;7.97;;;5.60;;
